sensor_id;sensor_type;location;lat;lon;timestamp;pressure;altitude;pressure_sealevel;temperature;humidity
19884;BME280;10104;50.732;10.174;2022-11-20T00:01:31;97507.72;;;-4.90;71.26
19884;BME280;10104;50.732;10.174;2022-11-20T00:03:54;97506.56;;;-4.99;71.37
19884;BME280;10104;50.732;10.174;2022-11-20T00:06:17;97508.63;;;-5.04;70.50
19884;BME280;10104;50.732;10.174;2022-11-20T00:08:41;97508.72;;;-5.05;69.78
19884;BME280;10104;50.732;10.174;2022-11-20T00:11:10;97508.13;;;-4.96;69.25
19884;BME280;10104;50.732;10.174;2022-11-20T00:13:36;97503.97;;;-5.11;68.41
19884;BME280;10104;50.732;10.174;2022-11-20T00:15:59;97519.84;;;-5.17;68.45
19884;BME280;10104;50.732;10.174;2022-11-20T00:18:21;97510.59;;;-5.07;68.34
19884;BME280;10104;50.732;10.174;2022-11-20T00:20:42;97518.31;;;-5.20;68.15
19884;BME280;10104;50.732;10.174;2022-11-20T00:23:04;97512.53;;;-5.11;67.86
19884;BME280;10104;50.732;10.174;2022-11-20T00:25:27;97520.59;;;-5.03;67.74
19884;BME280;10104;50.732;10.174;2022-11-20T00:27:48;97519.78;;;-5.03;67.08
19884;BME280;10104;50.732;10.174;2022-11-20T00:30:10;97535.63;;;-5.22;66.66
19884;BME280;10104;50.732;10.174;2022-11-20T00:32:35;97530.84;;;-5.01;66.48
19884;BME280;10104;50.732;10.174;2022-11-20T00:34:56;97527.72;;;-4.94;66.84
19884;BME280;10104;50.732;10.174;2022-11-20T00:37:18;97541.25;;;-5.03;66.93
19884;BME280;10104;50.732;10.174;2022-11-20T00:39:39;97524.53;;;-4.97;66.96
19884;BME280;10104;50.732;10.174;2022-11-20T00:42:01;97531.88;;;-5.31;67.42
19884;BME280;10104;50.732;10.174;2022-11-20T00:44:23;97530.94;;;-5.42;67.64
19884;BME280;10104;50.732;10.174;2022-11-20T00:46:44;97520.66;;;-5.30;67.60
19884;BME280;10104;50.732;10.174;2022-11-20T00:49:06;97507.69;;;-5.15;68.04
19884;BME280;10104;50.732;10.174;2022-11-20T00:51:27;97517.31;;;-5.44;71.29
19884;BME280;10104;50.732;10.174;2022-11-20T00:53:49;97533.31;;;-5.66;71.63
19884;BME280;10104;50.732;10.174;2022-11-20T00:56:14;97530.78;;;-5.53;71.27
19884;BME280;10104;50.732;10.174;2022-11-20T00:58:37;97525.16;;;-5.46;71.90
19884;BME280;10104;50.732;10.174;2022-11-20T01:01:14;97529.22;;;-5.68;75.18
19884;BME280;10104;50.732;10.174;2022-11-20T01:03:39;97528.84;;;-5.77;77.02
19884;BME280;10104;50.732;10.174;2022-11-20T01:06:09;97523.78;;;-5.51;74.84
19884;BME280;10104;50.732;10.174;2022-11-20T01:08:33;97519.66;;;-5.54;76.59
19884;BME280;10104;50.732;10.174;2022-11-20T01:10:59;97524.50;;;-5.62;78.76
19884;BME280;10104;50.732;10.174;2022-11-20T01:13:20;97521.75;;;-5.46;77.84
19884;BME280;10104;50.732;10.174;2022-11-20T01:16:05;97509.94;;;-5.11;75.34
19884;BME280;10104;50.732;10.174;2022-11-20T01:18:27;97509.88;;;-4.97;74.51
19884;BME280;10104;50.732;10.174;2022-11-20T01:20:48;97510.47;;;-5.06;76.68
19884;BME280;10104;50.732;10.174;2022-11-20T01:23:10;97501.94;;;-5.06;77.23
19884;BME280;10104;50.732;10.174;2022-11-20T01:25:31;97498.00;;;-4.99;77.42
19884;BME280;10104;50.732;10.174;2022-11-20T01:27:53;97502.56;;;-4.90;77.15
19884;BME280;10104;50.732;10.174;2022-11-20T01:30:14;97496.47;;;-4.76;76.18
19884;BME280;10104;50.732;10.174;2022-11-20T01:32:36;97493.75;;;-4.62;75.69
19884;BME280;10104;50.732;10.174;2022-11-20T01:34:57;97499.16;;;-4.78;77.13
19884;BME280;10104;50.732;10.174;2022-11-20T01:37:19;97500.16;;;-4.80;77.42
19884;BME280;10104;50.732;10.174;2022-11-20T01:39:40;97493.34;;;-4.56;76.17
19884;BME280;10104;50.732;10.174;2022-11-20T01:42:02;97489.72;;;-4.41;75.17
19884;BME280;10104;50.732;10.174;2022-11-20T01:44:56;97488.16;;;-4.31;74.61
19884;BME280;10104;50.732;10.174;2022-11-20T01:49:52;97491.09;;;-4.86;79.58
19884;BME280;10104;50.732;10.174;2022-11-20T01:52:27;97489.84;;;-4.80;79.92
19884;BME280;10104;50.732;10.174;2022-11-20T01:54:56;97479.81;;;-4.47;77.92
19884;BME280;10104;50.732;10.174;2022-11-20T01:57:20;97475.16;;;-4.42;77.77
19884;BME280;10104;50.732;10.174;2022-11-20T01:59:49;97465.16;;;-4.59;79.17
19884;BME280;10104;50.732;10.174;2022-11-20T02:02:15;97467.94;;;-4.62;79.87
19884;BME280;10104;50.732;10.174;2022-11-20T02:04:36;97459.88;;;-4.45;78.67
19884;BME280;10104;50.732;10.174;2022-11-20T02:07:03;97458.63;;;-4.39;78.99
19884;BME280;10104;50.732;10.174;2022-11-20T02:09:27;97460.19;;;-4.50;80.42
19884;BME280;10104;50.732;10.174;2022-11-20T02:11:49;97466.00;;;-4.59;81.37
19884;BME280;10104;50.732;10.174;2022-11-20T02:14:10;97465.91;;;-4.57;81.51
19884;BME280;10104;50.732;10.174;2022-11-20T02:16:35;97460.41;;;-4.65;82.24
19884;BME280;10104;50.732;10.174;2022-11-20T02:19:00;97463.19;;;-4.81;84.10
19884;BME280;10104;50.732;10.174;2022-11-20T02:22:04;97464.03;;;-4.68;83.51
19884;BME280;10104;50.732;10.174;2022-11-20T02:24:20;97455.53;;;-4.44;82.16
19884;BME280;10104;50.732;10.174;2022-11-20T02:26:53;97440.09;;;-4.21;80.64
19884;BME280;10104;50.732;10.174;2022-11-20T02:29:17;97429.75;;;-3.97;79.52
19884;BME280;10104;50.732;10.174;2022-11-20T02:31:42;97431.41;;;-3.96;79.45
19884;BME280;10104;50.732;10.174;2022-11-20T02:34:04;97430.44;;;-3.95;80.22
19884;BME280;10104;50.732;10.174;2022-11-20T02:36:27;97434.25;;;-3.88;79.75
19884;BME280;10104;50.732;10.174;2022-11-20T02:38:49;97439.41;;;-3.88;80.76
19884;BME280;10104;50.732;10.174;2022-11-20T02:41:11;97433.56;;;-3.90;80.91
19884;BME280;10104;50.732;10.174;2022-11-20T02:43:32;97442.72;;;-4.10;82.72
19884;BME280;10104;50.732;10.174;2022-11-20T02:45:54;97435.38;;;-4.03;82.54
19884;BME280;10104;50.732;10.174;2022-11-20T02:48:15;97431.06;;;-3.91;81.97
19884;BME280;10104;50.732;10.174;2022-11-20T02:50:38;97435.41;;;-3.92;82.48
19884;BME280;10104;50.732;10.174;2022-11-20T02:53:00;97430.09;;;-3.78;81.75
19884;BME280;10104;50.732;10.174;2022-11-20T02:55:21;97431.50;;;-3.74;81.60
19884;BME280;10104;50.732;10.174;2022-11-20T02:57:43;97426.00;;;-3.69;81.81
19884;BME280;10104;50.732;10.174;2022-11-20T03:00:05;97424.41;;;-3.59;81.54
19884;BME280;10104;50.732;10.174;2022-11-20T03:02:31;97423.25;;;-3.44;80.35
19884;BME280;10104;50.732;10.174;2022-11-20T03:04:52;97423.97;;;-3.42;80.57
19884;BME280;10104;50.732;10.174;2022-11-20T03:07:14;97418.47;;;-3.26;79.87
19884;BME280;10104;50.732;10.174;2022-11-20T03:09:36;97406.00;;;-3.32;80.69
19884;BME280;10104;50.732;10.174;2022-11-20T03:11:57;97401.81;;;-3.22;80.39
19884;BME280;10104;50.732;10.174;2022-11-20T03:14:19;97399.69;;;-3.17;80.06
19884;BME280;10104;50.732;10.174;2022-11-20T03:16:41;97404.25;;;-3.20;81.41
19884;BME280;10104;50.732;10.174;2022-11-20T03:19:03;97412.97;;;-3.21;81.22
19884;BME280;10104;50.732;10.174;2022-11-20T03:21:24;97423.06;;;-3.41;83.29
19884;BME280;10104;50.732;10.174;2022-11-20T03:23:46;97437.78;;;-3.65;85.42
19884;BME280;10104;50.732;10.174;2022-11-20T03:26:10;97429.13;;;-3.53;85.35
19884;BME280;10104;50.732;10.174;2022-11-20T03:28:32;97414.84;;;-3.35;84.06
19884;BME280;10104;50.732;10.174;2022-11-20T03:30:54;97424.28;;;-3.22;83.14
19884;BME280;10104;50.732;10.174;2022-11-20T03:33:15;97419.13;;;-3.11;82.93
19884;BME280;10104;50.732;10.174;2022-11-20T03:35:37;97417.00;;;-3.06;82.95
19884;BME280;10104;50.732;10.174;2022-11-20T03:37:58;97429.69;;;-3.14;84.54
19884;BME280;10104;50.732;10.174;2022-11-20T03:40:20;97420.75;;;-3.10;84.99
19884;BME280;10104;50.732;10.174;2022-11-20T03:42:41;97401.44;;;-3.29;86.51
19884;BME280;10104;50.732;10.174;2022-11-20T03:45:09;97397.31;;;-3.20;86.78
19884;BME280;10104;50.732;10.174;2022-11-20T03:47:30;97393.09;;;-3.21;87.48
19884;BME280;10104;50.732;10.174;2022-11-20T03:49:52;97400.88;;;-3.21;88.55
19884;BME280;10104;50.732;10.174;2022-11-20T03:52:13;97401.31;;;-3.27;89.47
19884;BME280;10104;50.732;10.174;2022-11-20T03:54:35;97393.69;;;-3.06;88.40
19884;BME280;10104;50.732;10.174;2022-11-20T03:56:56;97397.13;;;-3.06;88.77
19884;BME280;10104;50.732;10.174;2022-11-20T03:59:18;97417.81;;;-3.17;88.97
19884;BME280;10104;50.732;10.174;2022-11-20T04:01:40;97412.66;;;-2.95;87.65
19884;BME280;10104;50.732;10.174;2022-11-20T04:04:08;97422.56;;;-2.66;86.12
19884;BME280;10104;50.732;10.174;2022-11-20T04:06:34;97423.97;;;-2.51;84.85
19884;BME280;10104;50.732;10.174;2022-11-20T04:08:57;97413.34;;;-2.37;84.07
19884;BME280;10104;50.732;10.174;2022-11-20T04:11:21;97416.88;;;-2.27;83.65
19884;BME280;10104;50.732;10.174;2022-11-20T04:13:47;97407.31;;;-2.15;83.16
19884;BME280;10104;50.732;10.174;2022-11-20T04:16:09;97412.63;;;-2.17;83.18
19884;BME280;10104;50.732;10.174;2022-11-20T04:18:31;97404.94;;;-2.07;82.89
19884;BME280;10104;50.732;10.174;2022-11-20T04:20:53;97400.09;;;-2.00;83.51
19884;BME280;10104;50.732;10.174;2022-11-20T04:23:14;97394.13;;;-2.23;84.50
19884;BME280;10104;50.732;10.174;2022-11-20T04:25:36;97391.44;;;-2.44;85.77
19884;BME280;10104;50.732;10.174;2022-11-20T04:27:57;97395.81;;;-2.45;86.18
19884;BME280;10104;50.732;10.174;2022-11-20T04:30:19;97398.88;;;-2.51;87.68
19884;BME280;10104;50.732;10.174;2022-11-20T04:32:40;97393.59;;;-2.49;87.39
19884;BME280;10104;50.732;10.174;2022-11-20T04:35:02;97392.88;;;-2.62;88.40
19884;BME280;10104;50.732;10.174;2022-11-20T04:37:23;97389.72;;;-2.55;88.32
19884;BME280;10104;50.732;10.174;2022-11-20T04:39:44;97382.97;;;-2.35;87.19
19884;BME280;10104;50.732;10.174;2022-11-20T04:42:08;97391.41;;;-2.22;86.57
19884;BME280;10104;50.732;10.174;2022-11-20T04:44:48;97380.16;;;-2.43;87.91
19884;BME280;10104;50.732;10.174;2022-11-20T04:47:09;97377.09;;;-2.48;87.98
19884;BME280;10104;50.732;10.174;2022-11-20T04:49:31;97374.47;;;-2.37;87.78
19884;BME280;10104;50.732;10.174;2022-11-20T04:51:53;97364.19;;;-2.16;86.43
19884;BME280;10104;50.732;10.174;2022-11-20T04:54:15;97359.81;;;-2.16;87.03
19884;BME280;10104;50.732;10.174;2022-11-20T04:56:37;97373.75;;;-2.17;86.60
19884;BME280;10104;50.732;10.174;2022-11-20T04:59:02;97384.72;;;-2.24;87.33
19884;BME280;10104;50.732;10.174;2022-11-20T05:01:24;97394.63;;;-2.29;89.13
19884;BME280;10104;50.732;10.174;2022-11-20T05:03:46;97389.97;;;-2.15;88.50
19884;BME280;10104;50.732;10.174;2022-11-20T05:06:09;97379.91;;;-2.40;90.59
19884;BME280;10104;50.732;10.174;2022-11-20T05:08:31;97379.25;;;-2.21;89.72
19884;BME280;10104;50.732;10.174;2022-11-20T05:10:53;97363.50;;;-1.97;88.21
19884;BME280;10104;50.732;10.174;2022-11-20T05:13:14;97374.19;;;-1.80;87.03
19884;BME280;10104;50.732;10.174;2022-11-20T05:15:36;97365.66;;;-1.71;86.67
19884;BME280;10104;50.732;10.174;2022-11-20T05:17:57;97362.84;;;-1.79;86.97
19884;BME280;10104;50.732;10.174;2022-11-20T05:20:20;97359.13;;;-1.86;88.37
19884;BME280;10104;50.732;10.174;2022-11-20T05:22:42;97354.69;;;-1.95;88.86
19884;BME280;10104;50.732;10.174;2022-11-20T05:25:04;97358.63;;;-2.12;90.51
19884;BME280;10104;50.732;10.174;2022-11-20T05:27:25;97345.22;;;-2.17;90.97
19884;BME280;10104;50.732;10.174;2022-11-20T05:29:47;97344.09;;;-2.03;91.02
19884;BME280;10104;50.732;10.174;2022-11-20T05:32:08;97352.84;;;-1.83;89.88
19884;BME280;10104;50.732;10.174;2022-11-20T05:34:31;97343.78;;;-1.57;88.27
19884;BME280;10104;50.732;10.174;2022-11-20T05:36:53;97332.50;;;-1.46;87.35
19884;BME280;10104;50.732;10.174;2022-11-20T05:39:14;97326.59;;;-1.28;86.42
19884;BME280;10104;50.732;10.174;2022-11-20T05:41:35;97327.72;;;-1.20;86.28
19884;BME280;10104;50.732;10.174;2022-11-20T05:43:57;97319.22;;;-1.23;86.10
19884;BME280;10104;50.732;10.174;2022-11-20T05:46:20;97339.78;;;-1.40;87.23
19884;BME280;10104;50.732;10.174;2022-11-20T05:48:48;97355.28;;;-1.71;88.13
19884;BME280;10104;50.732;10.174;2022-11-20T05:51:12;97357.94;;;-1.82;89.24
19884;BME280;10104;50.732;10.174;2022-11-20T05:53:35;97352.44;;;-1.68;88.51
19884;BME280;10104;50.732;10.174;2022-11-20T05:56:05;97332.19;;;-1.74;88.40
19884;BME280;10104;50.732;10.174;2022-11-20T05:58:28;97327.31;;;-1.67;88.35
19884;BME280;10104;50.732;10.174;2022-11-20T06:00:50;97313.38;;;-1.45;87.79
19884;BME280;10104;50.732;10.174;2022-11-20T06:03:11;97322.50;;;-1.30;87.18
19884;BME280;10104;50.732;10.174;2022-11-20T06:05:33;97329.50;;;-1.21;86.40
19884;BME280;10104;50.732;10.174;2022-11-20T06:07:54;97317.63;;;-1.44;87.39
19884;BME280;10104;50.732;10.174;2022-11-20T06:10:16;97323.44;;;-1.52;88.51
19884;BME280;10104;50.732;10.174;2022-11-20T06:12:37;97326.47;;;-1.47;88.54
19884;BME280;10104;50.732;10.174;2022-11-20T06:14:59;97327.38;;;-1.57;89.54
19884;BME280;10104;50.732;10.174;2022-11-20T06:17:21;97321.66;;;-1.51;89.27
19884;BME280;10104;50.732;10.174;2022-11-20T06:19:42;97322.03;;;-1.35;88.07
19884;BME280;10104;50.732;10.174;2022-11-20T06:22:04;97333.31;;;-1.25;87.79
19884;BME280;10104;50.732;10.174;2022-11-20T06:24:25;97334.56;;;-1.40;89.38
19884;BME280;10104;50.732;10.174;2022-11-20T06:26:47;97345.09;;;-1.63;90.01
19884;BME280;10104;50.732;10.174;2022-11-20T06:29:08;97334.16;;;-1.45;89.55
19884;BME280;10104;50.732;10.174;2022-11-20T06:31:30;97345.22;;;-1.43;90.17
19884;BME280;10104;50.732;10.174;2022-11-20T06:33:54;97349.41;;;-1.31;89.32
19884;BME280;10104;50.732;10.174;2022-11-20T06:36:17;97345.41;;;-1.05;88.37
19884;BME280;10104;50.732;10.174;2022-11-20T06:38:39;97345.25;;;-0.83;86.93
19884;BME280;10104;50.732;10.174;2022-11-20T06:41:03;97348.84;;;-0.74;86.73
19884;BME280;10104;50.732;10.174;2022-11-20T06:43:24;97353.41;;;-0.97;86.91
19884;BME280;10104;50.732;10.174;2022-11-20T06:45:52;97353.00;;;-0.92;86.46
19884;BME280;10104;50.732;10.174;2022-11-20T06:48:14;97361.59;;;-1.01;87.43
19884;BME280;10104;50.732;10.174;2022-11-20T06:50:38;97358.66;;;-0.87;86.36
19884;BME280;10104;50.732;10.174;2022-11-20T06:53:01;97359.47;;;-0.87;86.35
19884;BME280;10104;50.732;10.174;2022-11-20T06:55:23;97358.97;;;-0.80;86.00
19884;BME280;10104;50.732;10.174;2022-11-20T06:57:45;97352.84;;;-0.70;85.39
19884;BME280;10104;50.732;10.174;2022-11-20T07:00:09;97354.19;;;-0.75;85.07
19884;BME280;10104;50.732;10.174;2022-11-20T07:02:31;97348.03;;;-0.74;84.97
19884;BME280;10104;50.732;10.174;2022-11-20T07:04:52;97348.75;;;-0.63;85.18
19884;BME280;10104;50.732;10.174;2022-11-20T07:07:14;97356.38;;;-0.71;84.77
19884;BME280;10104;50.732;10.174;2022-11-20T07:09:35;97346.38;;;-0.75;85.71
19884;BME280;10104;50.732;10.174;2022-11-20T07:11:57;97342.88;;;-0.65;85.59
19884;BME280;10104;50.732;10.174;2022-11-20T07:14:18;97344.69;;;-0.56;85.48
19884;BME280;10104;50.732;10.174;2022-11-20T07:16:40;97344.28;;;-0.51;84.63
19884;BME280;10104;50.732;10.174;2022-11-20T07:19:01;97344.53;;;-0.54;84.70
19884;BME280;10104;50.732;10.174;2022-11-20T07:21:23;97343.63;;;-0.44;84.09
19884;BME280;10104;50.732;10.174;2022-11-20T07:23:46;97345.97;;;-0.31;84.47
19884;BME280;10104;50.732;10.174;2022-11-20T07:26:09;97334.75;;;-0.22;83.87
19884;BME280;10104;50.732;10.174;2022-11-20T07:28:31;97339.28;;;-0.14;83.46
19884;BME280;10104;50.732;10.174;2022-11-20T07:30:53;97331.72;;;-0.17;83.43
19884;BME280;10104;50.732;10.174;2022-11-20T07:33:14;97343.38;;;-0.21;83.45
19884;BME280;10104;50.732;10.174;2022-11-20T07:35:36;97345.28;;;-0.23;83.16
19884;BME280;10104;50.732;10.174;2022-11-20T07:37:57;97341.19;;;-0.26;84.08
19884;BME280;10104;50.732;10.174;2022-11-20T07:40:19;97339.13;;;-0.22;83.99
19884;BME280;10104;50.732;10.174;2022-11-20T07:42:52;97337.47;;;-0.33;84.34
19884;BME280;10104;50.732;10.174;2022-11-20T07:45:13;97340.63;;;-0.39;85.14
19884;BME280;10104;50.732;10.174;2022-11-20T07:47:36;97339.06;;;-0.51;86.67
19884;BME280;10104;50.732;10.174;2022-11-20T07:49:57;97342.25;;;-0.38;85.63
19884;BME280;10104;50.732;10.174;2022-11-20T07:52:19;97343.78;;;-0.26;85.44
19884;BME280;10104;50.732;10.174;2022-11-20T07:54:40;97344.91;;;-0.19;85.22
19884;BME280;10104;50.732;10.174;2022-11-20T07:57:02;97348.88;;;-0.15;85.00
19884;BME280;10104;50.732;10.174;2022-11-20T07:59:23;97343.41;;;-0.02;84.27
19884;BME280;10104;50.732;10.174;2022-11-20T08:01:45;97340.97;;;0.06;83.80
19884;BME280;10104;50.732;10.174;2022-11-20T08:04:06;97334.94;;;0.06;83.84
19884;BME280;10104;50.732;10.174;2022-11-20T08:06:28;97341.59;;;-0.11;84.35
19884;BME280;10104;50.732;10.174;2022-11-20T08:08:50;97342.44;;;-0.20;85.28
19884;BME280;10104;50.732;10.174;2022-11-20T08:11:12;97347.06;;;-0.33;86.32
19884;BME280;10104;50.732;10.174;2022-11-20T08:13:52;97345.81;;;-0.29;86.56
19884;BME280;10104;50.732;10.174;2022-11-20T08:16:31;97349.13;;;-0.27;87.07
19884;BME280;10104;50.732;10.174;2022-11-20T08:18:53;97343.25;;;-0.20;86.51
19884;BME280;10104;50.732;10.174;2022-11-20T08:21:14;97342.97;;;-0.17;86.88
19884;BME280;10104;50.732;10.174;2022-11-20T08:23:36;97343.91;;;-0.18;87.46
19884;BME280;10104;50.732;10.174;2022-11-20T08:25:57;97347.25;;;0.04;86.44
19884;BME280;10104;50.732;10.174;2022-11-20T08:28:19;97346.84;;;0.18;85.61
19884;BME280;10104;50.732;10.174;2022-11-20T08:30:42;97346.97;;;0.26;85.96
19884;BME280;10104;50.732;10.174;2022-11-20T08:33:06;97347.09;;;0.15;86.22
19884;BME280;10104;50.732;10.174;2022-11-20T08:35:32;97353.69;;;-0.01;87.46
19884;BME280;10104;50.732;10.174;2022-11-20T08:37:54;97351.19;;;-0.12;88.26
19884;BME280;10104;50.732;10.174;2022-11-20T08:40:15;97348.44;;;-0.10;88.75
19884;BME280;10104;50.732;10.174;2022-11-20T08:42:50;97350.63;;;-0.06;88.69
19884;BME280;10104;50.732;10.174;2022-11-20T08:45:12;97343.00;;;0.12;87.93
19884;BME280;10104;50.732;10.174;2022-11-20T08:47:33;97352.16;;;0.26;86.91
19884;BME280;10104;50.732;10.174;2022-11-20T08:49:54;97347.13;;;0.24;87.09
19884;BME280;10104;50.732;10.174;2022-11-20T08:52:16;97353.53;;;0.20;88.10
19884;BME280;10104;50.732;10.174;2022-11-20T08:54:37;97339.44;;;0.32;87.61
19884;BME280;10104;50.732;10.174;2022-11-20T08:56:59;97339.03;;;0.18;89.31
19884;BME280;10104;50.732;10.174;2022-11-20T08:59:20;97334.91;;;0.25;88.86
19884;BME280;10104;50.732;10.174;2022-11-20T09:02:02;97328.75;;;0.35;88.85
19884;BME280;10104;50.732;10.174;2022-11-20T09:04:23;97336.44;;;0.37;89.13
19884;BME280;10104;50.732;10.174;2022-11-20T09:06:45;97336.56;;;0.35;89.27
19884;BME280;10104;50.732;10.174;2022-11-20T09:09:06;97327.78;;;0.36;90.13
19884;BME280;10104;50.732;10.174;2022-11-20T09:11:28;97333.09;;;0.45;89.28
19884;BME280;10104;50.732;10.174;2022-11-20T09:13:49;97335.44;;;0.38;89.53
19884;BME280;10104;50.732;10.174;2022-11-20T09:16:11;97329.31;;;0.29;90.74
19884;BME280;10104;50.732;10.174;2022-11-20T09:18:33;97329.16;;;0.21;91.48
19884;BME280;10104;50.732;10.174;2022-11-20T09:20:58;97336.41;;;0.27;91.37
19884;BME280;10104;50.732;10.174;2022-11-20T09:23:20;97336.00;;;0.42;90.98
19884;BME280;10104;50.732;10.174;2022-11-20T09:25:42;97332.84;;;0.19;92.12
19884;BME280;10104;50.732;10.174;2022-11-20T09:28:04;97335.19;;;0.12;92.10
19884;BME280;10104;50.732;10.174;2022-11-20T09:30:26;97346.56;;;0.21;92.45
19884;BME280;10104;50.732;10.174;2022-11-20T09:32:48;97349.03;;;0.03;93.97
19884;BME280;10104;50.732;10.174;2022-11-20T09:35:10;97350.66;;;0.14;93.72
19884;BME280;10104;50.732;10.174;2022-11-20T09:37:32;97356.03;;;0.12;93.58
19884;BME280;10104;50.732;10.174;2022-11-20T09:39:53;97358.88;;;0.28;93.50
19884;BME280;10104;50.732;10.174;2022-11-20T09:45:15;97349.13;;;0.59;91.25
19884;BME280;10104;50.732;10.174;2022-11-20T09:55:35;97350.38;;;1.11;88.79
19884;BME280;10104;50.732;10.174;2022-11-20T09:57:58;97339.47;;;1.26;88.82
19884;BME280;10104;50.732;10.174;2022-11-20T10:00:20;97350.63;;;1.18;88.84
19884;BME280;10104;50.732;10.174;2022-11-20T10:02:59;97333.63;;;1.14;89.15
19884;BME280;10104;50.732;10.174;2022-11-20T10:05:27;97328.72;;;1.11;88.89
19884;BME280;10104;50.732;10.174;2022-11-20T10:07:58;97328.88;;;1.00;90.98
19884;BME280;10104;50.732;10.174;2022-11-20T10:16:40;97333.81;;;1.03;91.69
19884;BME280;10104;50.732;10.174;2022-11-20T10:30:07;97324.06;;;1.42;90.29
19884;BME280;10104;50.732;10.174;2022-11-20T10:32:35;97331.00;;;1.51;90.33
19884;BME280;10104;50.732;10.174;2022-11-20T10:35:28;97320.53;;;1.78;89.40
19884;BME280;10104;50.732;10.174;2022-11-20T10:37:59;97305.03;;;1.94;88.50
19884;BME280;10104;50.732;10.174;2022-11-20T10:40:41;97319.53;;;1.61;89.31
19884;BME280;10104;50.732;10.174;2022-11-20T10:43:18;97323.06;;;1.70;89.53
19884;BME280;10104;50.732;10.174;2022-11-20T10:46:06;97317.84;;;1.88;88.69
19884;BME280;10104;50.732;10.174;2022-11-20T10:48:31;97324.75;;;1.61;89.61
19884;BME280;10104;50.732;10.174;2022-11-20T10:53:37;97319.25;;;1.82;89.68
19884;BME280;10104;50.732;10.174;2022-11-20T10:58:48;97316.28;;;1.77;89.14
19884;BME280;10104;50.732;10.174;2022-11-20T11:01:17;97310.72;;;2.08;88.42
19884;BME280;10104;50.732;10.174;2022-11-20T11:03:39;97287.41;;;2.32;87.14
19884;BME280;10104;50.732;10.174;2022-11-20T11:06:12;97294.94;;;2.35;87.56
19884;BME280;10104;50.732;10.174;2022-11-20T11:08:40;97289.31;;;2.48;86.94
19884;BME280;10104;50.732;10.174;2022-11-20T11:11:21;97282.06;;;2.59;86.65
19884;BME280;10104;50.732;10.174;2022-11-20T11:13:43;97278.91;;;2.56;87.24
19884;BME280;10104;50.732;10.174;2022-11-20T11:16:05;97275.84;;;2.60;86.73
19884;BME280;10104;50.732;10.174;2022-11-20T11:18:30;97273.63;;;2.65;86.51
19884;BME280;10104;50.732;10.174;2022-11-20T11:20:54;97271.72;;;2.75;86.74
19884;BME280;10104;50.732;10.174;2022-11-20T11:23:34;97279.50;;;2.67;87.31
19884;BME280;10104;50.732;10.174;2022-11-20T11:25:59;97277.00;;;2.58;87.91
19884;BME280;10104;50.732;10.174;2022-11-20T11:28:22;97276.22;;;2.65;87.94
19884;BME280;10104;50.732;10.174;2022-11-20T11:30:47;97279.94;;;2.63;88.05
19884;BME280;10104;50.732;10.174;2022-11-20T11:33:20;97276.84;;;2.59;88.58
19884;BME280;10104;50.732;10.174;2022-11-20T11:35:49;97284.91;;;2.74;87.69
19884;BME280;10104;50.732;10.174;2022-11-20T11:40:53;97284.09;;;2.73;87.53
19884;BME280;10104;50.732;10.174;2022-11-20T11:43:24;97283.06;;;2.66;88.15
19884;BME280;10104;50.732;10.174;2022-11-20T11:46:31;97277.97;;;2.57;88.70
19884;BME280;10104;50.732;10.174;2022-11-20T11:48:57;97283.94;;;2.49;89.29
19884;BME280;10104;50.732;10.174;2022-11-20T11:51:20;97279.31;;;2.43;90.12
19884;BME280;10104;50.732;10.174;2022-11-20T11:53:42;97277.59;;;2.08;91.63
19884;BME280;10104;50.732;10.174;2022-11-20T11:56:08;97282.81;;;2.08;91.70
19884;BME280;10104;50.732;10.174;2022-11-20T12:03:39;97294.19;;;1.54;95.66
19884;BME280;10104;50.732;10.174;2022-11-20T12:06:11;97288.53;;;1.58;96.91
19884;BME280;10104;50.732;10.174;2022-11-20T12:08:44;97287.41;;;1.61;96.42
19884;BME280;10104;50.732;10.174;2022-11-20T12:11:33;97282.75;;;1.55;97.21
19884;BME280;10104;50.732;10.174;2022-11-20T12:14:14;97281.34;;;1.60;98.17
19884;BME280;10104;50.732;10.174;2022-11-20T12:16:38;97276.22;;;1.69;96.82
19884;BME280;10104;50.732;10.174;2022-11-20T12:19:00;97271.78;;;1.79;95.82
19884;BME280;10104;50.732;10.174;2022-11-20T12:21:31;97277.06;;;1.69;96.77
19884;BME280;10104;50.732;10.174;2022-11-20T12:24:10;97276.00;;;1.62;97.12
19884;BME280;10104;50.732;10.174;2022-11-20T12:32:43;97267.59;;;1.68;96.32
19884;BME280;10104;50.732;10.174;2022-11-20T12:38:29;97269.13;;;1.61;95.00
19884;BME280;10104;50.732;10.174;2022-11-20T12:49:53;97259.25;;;1.82;93.61
19884;BME280;10104;50.732;10.174;2022-11-20T12:54:54;97263.34;;;1.85;93.27
19884;BME280;10104;50.732;10.174;2022-11-20T13:00:23;97264.22;;;1.93;93.64
19884;BME280;10104;50.732;10.174;2022-11-20T13:08:20;97252.66;;;2.14;91.95
19884;BME280;10104;50.732;10.174;2022-11-20T13:10:50;97254.22;;;2.24;91.62
19884;BME280;10104;50.732;10.174;2022-11-20T13:13:24;97257.25;;;2.37;91.88
19884;BME280;10104;50.732;10.174;2022-11-20T13:16:08;97259.25;;;2.43;91.91
19884;BME280;10104;50.732;10.174;2022-11-20T13:18:38;97255.16;;;2.67;90.65
19884;BME280;10104;50.732;10.174;2022-11-20T13:21:00;97264.78;;;2.66;89.42
19884;BME280;10104;50.732;10.174;2022-11-20T13:23:24;97250.66;;;2.85;89.40
19884;BME280;10104;50.732;10.174;2022-11-20T13:25:46;97254.09;;;2.77;88.80
19884;BME280;10104;50.732;10.174;2022-11-20T13:30:30;97251.00;;;2.82;88.69
19884;BME280;10104;50.732;10.174;2022-11-20T13:33:20;97255.44;;;2.90;87.27
19884;BME280;10104;50.732;10.174;2022-11-20T13:35:55;97254.53;;;3.07;87.42
19884;BME280;10104;50.732;10.174;2022-11-20T13:38:17;97252.97;;;3.22;86.70
19884;BME280;10104;50.732;10.174;2022-11-20T13:40:59;97255.38;;;3.15;85.76
19884;BME280;10104;50.732;10.174;2022-11-20T13:43:44;97251.69;;;3.26;85.81
19884;BME280;10104;50.732;10.174;2022-11-20T13:46:07;97251.94;;;3.15;85.62
19884;BME280;10104;50.732;10.174;2022-11-20T13:48:38;97255.56;;;3.22;85.83
19884;BME280;10104;50.732;10.174;2022-11-20T13:51:30;97239.91;;;3.30;86.51
19884;BME280;10104;50.732;10.174;2022-11-20T13:57:17;97237.34;;;3.38;85.38
19884;BME280;10104;50.732;10.174;2022-11-20T13:59:56;97236.22;;;3.49;85.33